Otagawa — JD3046 — position and weather

sailwx.info

Track history (hours):
 
Tides and Currents Weather Stations Pressure Air Temp Water Temp Dewpoint Dewpoint Depression Visibility Wind Speed Wind Dir Waves Ship Positions

Otagawa

Last reported at 2015-Jan-30 06:27 UTC. Time now 2015-Jan-31 10:07 UTC.
Position N 34°55' E 140°00'.

Length 70 m; draft 4.6 m.

Type: Ship. MMSI: 431001328.

Date/timePositionNaut miles runAvg speedWind from/ knotsBaromVisibWave heightAir tempDewpointWater temp
2015-Jan-30 06:27N 34°55' E 140°00'10 9.5
2015-Jan-30 05:24N 34°52' E 139°49'8 9.2
2015-Jan-30 04:33N 34°58' E 139°43'1111.3
2015-Jan-30 03:33N 35°10' E 139°46'1110.6
2015-Jan-30 02:33N 35°20' E 139°43'1010.1
2015-Jan-30 01:33N 35°28' E 139°49'9 8.8
2015-Jan-30 00:33N 35°37' E 139°46'0 0.0
2015-Jan-29 23:31N 35°37' E 139°46'2 2.4
2015-Jan-29 22:33N 35°35' E 139°48'3 0.4
2015-Jan-29 16:15N 35°34' E 139°50'0 0.1
2015-Jan-29 15:33N 35°34' E 139°50'0 0.0
2015-Jan-29 14:33N 35°34' E 139°50'0 0.0
2015-Jan-29 13:33N 35°34' E 139°50'0 0.0
2015-Jan-29 12:33N 35°34' E 139°50'0 0.0
2015-Jan-29 11:33N 35°34' E 139°50'0 0.0
2015-Jan-29 10:33N 35°34' E 139°50'0 0.0
2015-Jan-29 09:33N 35°34' E 139°50'0 0.0
2015-Jan-29 07:29N 35°34' E 139°50'6 6.9
2015-Jan-29 06:33N 35°29' E 139°45'0 0.0
2015-Jan-29 05:33N 35°29' E 139°45'5 5.3
2015-Jan-29 04:33N 35°24' E 139°46'9 9.5
2015-Jan-29 03:33N 35°15' E 139°47'10 9.7
2015-Jan-29 02:33N 35°05' E 139°43'1010.3
2015-Jan-29 01:33N 34°59' E 139°33'  
2015-Jan-26 20:26N 34°47' E 139°06'1511.3
2015-Jan-26 19:05N 34°57' E 139°20'611.3
2015-Jan-26 18:32N 34°60' E 139°27'1211.6
2015-Jan-26 17:33N 35°06' E 139°39'1111.0
2015-Jan-26 16:33N 35°15' E 139°46'1110.6
2015-Jan-26 15:33N 35°25' E 139°44'10 9.8
2015-Jan-26 14:33N 35°33' E 139°50'5 4.8
2015-Jan-26 13:33N 35°37' E 139°46'7 6.0
2015-Jan-26 12:27N 35°31' E 139°50'9 9.5
2015-Jan-26 11:33N 35°26' E 139°41'0 0.1
2015-Jan-26 10:33N 35°26' E 139°41'1 0.8
2015-Jan-26 09:33N 35°26' E 139°42'0 0.2
2015-Jan-26 08:33N 35°26' E 139°42'0 0.0
2015-Jan-26 07:31N 35°26' E 139°42'0 0.0
2015-Jan-26 06:31N 35°26' E 139°42'0 0.0
2015-Jan-26 05:31N 35°26' E 139°42'0 0.0
2015-Jan-26 04:31N 35°26' E 139°42'0 0.0
2015-Jan-26 03:31N 35°26' E 139°42'0 0.0
2015-Jan-26 02:31N 35°26' E 139°42'0 0.0
2015-Jan-26 01:31N 35°26' E 139°42'0 0.0
2015-Jan-26 00:31N 35°26' E 139°42'0 0.0
2015-Jan-25 23:34N 35°26' E 139°42'8 8.1
2015-Jan-25 22:34N 35°18' E 139°44'1010.2
2015-Jan-25 21:34N 35°08' E 139°46'1010.3
2015-Jan-25 20:33N 34°58' E 139°43'12 9.0
2015-Jan-25 19:10N 34°53' E 139°57'5 7.9
2015-Jan-25 18:32N 34°56' E 140°02'  
2015-Jan-23 04:10N 34°52' E 139°49'6 9.4
2015-Jan-23 03:29N 34°57' E 139°44'1010.4
2015-Jan-23 02:33N 35°07' E 139°45'1010.4
2015-Jan-23 01:33N 35°17' E 139°45'1010.0
2015-Jan-23 00:33N 35°27' E 139°41'0 0.4
2015-Jan-22 23:33N 35°26' E 139°41'1 0.8
2015-Jan-22 22:33N 35°26' E 139°42'0 0.0
2015-Jan-22 21:32N 35°26' E 139°42'0 0.0
2015-Jan-22 20:32N 35°26' E 139°42'0 0.0
2015-Jan-22 19:32N 35°26' E 139°42'0 0.0
2015-Jan-22 18:29N 35°26' E 139°42'0 0.0
2015-Jan-22 17:32N 35°26' E 139°42'0 0.0
2015-Jan-22 16:29N 35°26' E 139°42'0 0.0
2015-Jan-22 15:32N 35°26' E 139°42'0 0.0
2015-Jan-22 14:29N 35°26' E 139°42'0 0.0
2015-Jan-22 13:32N 35°26' E 139°42'0 0.0
2015-Jan-22 12:32N 35°26' E 139°42'0 0.0
2015-Jan-22 11:26N 35°26' E 139°42'0 0.0
2015-Jan-22 10:32N 35°26' E 139°42'0 0.0
2015-Jan-22 09:29N 35°26' E 139°42'0 0.0
2015-Jan-22 08:32N 35°26' E 139°42'0 0.1
2015-Jan-22 07:32N 35°26' E 139°42'4 4.5
2015-Jan-22 06:33N 35°29' E 139°45'0 0.0
2015-Jan-22 05:33N 35°29' E 139°45'2 1.9
2015-Jan-22 04:33N 35°27' E 139°46'10 9.9
2015-Jan-22 03:33N 35°18' E 139°45'10 9.6
2015-Jan-22 02:33N 35°08' E 139°46'1010.0
2015-Jan-22 01:33N 35°01' E 139°37'11 9.8
2015-Jan-22 00:28N 34°55' E 139°26'16 0.4
2015-Jan-20 07:31N 34°48' E 139°08'  
Track history (hours):
 
Tides and Currents Weather Stations Pressure Air Temp Water Temp Dewpoint Dewpoint Depression Visibility Wind Speed Wind Dir Waves Ship Positions

Otagawa

Last reported at 2015-Jan-30 06:27 UTC. Time now 2015-Jan-31 10:07 UTC.
Position N 34°55' E 140°00'.

Length 70 m; draft 4.6 m.

Type: Ship. MMSI: 431001328.

Date/timePositionNaut miles runAvg speedWind from/ knotsBaromVisibWave heightAir tempDewpointWater temp
2015-Jan-30 06:27N 34°55' E 140°00'10 9.5
2015-Jan-30 05:24N 34°52' E 139°49'8 9.2
2015-Jan-30 04:33N 34°58' E 139°43'1111.3
2015-Jan-30 03:33N 35°10' E 139°46'1110.6
2015-Jan-30 02:33N 35°20' E 139°43'1010.1
2015-Jan-30 01:33N 35°28' E 139°49'9 8.8
2015-Jan-30 00:33N 35°37' E 139°46'0 0.0
2015-Jan-29 23:31N 35°37' E 139°46'2 2.4
2015-Jan-29 22:33N 35°35' E 139°48'3 0.4
2015-Jan-29 16:15N 35°34' E 139°50'0 0.1
2015-Jan-29 15:33N 35°34' E 139°50'0 0.0
2015-Jan-29 14:33N 35°34' E 139°50'0 0.0
2015-Jan-29 13:33N 35°34' E 139°50'0 0.0
2015-Jan-29 12:33N 35°34' E 139°50'0 0.0
2015-Jan-29 11:33N 35°34' E 139°50'0 0.0
2015-Jan-29 10:33N 35°34' E 139°50'0 0.0
2015-Jan-29 09:33N 35°34' E 139°50'0 0.0
2015-Jan-29 07:29N 35°34' E 139°50'6 6.9
2015-Jan-29 06:33N 35°29' E 139°45'0 0.0
2015-Jan-29 05:33N 35°29' E 139°45'5 5.3
2015-Jan-29 04:33N 35°24' E 139°46'9 9.5
2015-Jan-29 03:33N 35°15' E 139°47'10 9.7
2015-Jan-29 02:33N 35°05' E 139°43'1010.3
2015-Jan-29 01:33N 34°59' E 139°33'  
2015-Jan-26 20:26N 34°47' E 139°06'1511.3
2015-Jan-26 19:05N 34°57' E 139°20'611.3
2015-Jan-26 18:32N 34°60' E 139°27'1211.6
2015-Jan-26 17:33N 35°06' E 139°39'1111.0
2015-Jan-26 16:33N 35°15' E 139°46'1110.6
2015-Jan-26 15:33N 35°25' E 139°44'10 9.8
2015-Jan-26 14:33N 35°33' E 139°50'5 4.8
2015-Jan-26 13:33N 35°37' E 139°46'7 6.0
2015-Jan-26 12:27N 35°31' E 139°50'9 9.5
2015-Jan-26 11:33N 35°26' E 139°41'0 0.1
2015-Jan-26 10:33N 35°26' E 139°41'1 0.8
2015-Jan-26 09:33N 35°26' E 139°42'0 0.2
2015-Jan-26 08:33N 35°26' E 139°42'0 0.0
2015-Jan-26 07:31N 35°26' E 139°42'0 0.0
2015-Jan-26 06:31N 35°26' E 139°42'0 0.0
2015-Jan-26 05:31N 35°26' E 139°42'0 0.0
2015-Jan-26 04:31N 35°26' E 139°42'0 0.0
2015-Jan-26 03:31N 35°26' E 139°42'0 0.0
2015-Jan-26 02:31N 35°26' E 139°42'0 0.0
2015-Jan-26 01:31N 35°26' E 139°42'0 0.0
2015-Jan-26 00:31N 35°26' E 139°42'0 0.0
2015-Jan-25 23:34N 35°26' E 139°42'8 8.1
2015-Jan-25 22:34N 35°18' E 139°44'1010.2
2015-Jan-25 21:34N 35°08' E 139°46'1010.3
2015-Jan-25 20:33N 34°58' E 139°43'12 9.0
2015-Jan-25 19:10N 34°53' E 139°57'5 7.9
2015-Jan-25 18:32N 34°56' E 140°02'  
2015-Jan-23 04:10N 34°52' E 139°49'6 9.4
2015-Jan-23 03:29N 34°57' E 139°44'1010.4
2015-Jan-23 02:33N 35°07' E 139°45'1010.4
2015-Jan-23 01:33N 35°17' E 139°45'1010.0
2015-Jan-23 00:33N 35°27' E 139°41'0 0.4
2015-Jan-22 23:33N 35°26' E 139°41'1 0.8
2015-Jan-22 22:33N 35°26' E 139°42'0 0.0
2015-Jan-22 21:32N 35°26' E 139°42'0 0.0
2015-Jan-22 20:32N 35°26' E 139°42'0 0.0
2015-Jan-22 19:32N 35°26' E 139°42'0 0.0
2015-Jan-22 18:29N 35°26' E 139°42'0 0.0
2015-Jan-22 17:32N 35°26' E 139°42'0 0.0
2015-Jan-22 16:29N 35°26' E 139°42'0 0.0
2015-Jan-22 15:32N 35°26' E 139°42'0 0.0
2015-Jan-22 14:29N 35°26' E 139°42'0 0.0
2015-Jan-22 13:32N 35°26' E 139°42'0 0.0
2015-Jan-22 12:32N 35°26' E 139°42'0 0.0
2015-Jan-22 11:26N 35°26' E 139°42'0 0.0
2015-Jan-22 10:32N 35°26' E 139°42'0 0.0
2015-Jan-22 09:29N 35°26' E 139°42'0 0.0
2015-Jan-22 08:32N 35°26' E 139°42'0 0.1
2015-Jan-22 07:32N 35°26' E 139°42'4 4.5
2015-Jan-22 06:33N 35°29' E 139°45'0 0.0
2015-Jan-22 05:33N 35°29' E 139°45'2 1.9
2015-Jan-22 04:33N 35°27' E 139°46'10 9.9
2015-Jan-22 03:33N 35°18' E 139°45'10 9.6
2015-Jan-22 02:33N 35°08' E 139°46'1010.0
2015-Jan-22 01:33N 35°01' E 139°37'11 9.8
2015-Jan-22 00:28N 34°55' E 139°26'16 0.4
2015-Jan-20 07:31N 34°48' E 139°08'  

Dump ship's entire track history